createdAt,value
2023-01-07T00:00:21.932Z,4.30
2023-01-07T00:01:21.796Z,4.00
2023-01-07T00:02:21.838Z,3.30
2023-01-07T00:03:21.755Z,4.30
2023-01-07T00:04:21.735Z,4.90
2023-01-07T00:05:21.684Z,4.40
2023-01-07T00:06:21.838Z,4.40
2023-01-07T00:07:21.670Z,3.90
2023-01-07T00:08:21.664Z,4.50
2023-01-07T00:09:21.663Z,4.50
2023-01-07T00:10:21.671Z,3.10
2023-01-07T00:11:21.624Z,3.60
2023-01-07T00:12:21.665Z,2.90
2023-01-07T00:13:21.608Z,4.00
2023-01-07T00:14:21.596Z,3.50
2023-01-07T00:15:21.600Z,3.50
2023-01-07T00:16:21.651Z,2.40
2023-01-07T00:17:21.565Z,3.60
2023-01-07T00:18:21.741Z,2.30
2023-01-07T00:19:21.560Z,3.10
2023-01-07T00:20:21.537Z,2.70
2023-01-07T00:21:21.565Z,3.80
2023-01-07T00:22:21.572Z,4.30
2023-01-07T00:23:21.546Z,3.70
2023-01-07T00:24:21.691Z,2.50
2023-01-07T00:25:21.533Z,3.50
2023-01-07T00:26:21.524Z,3.20
2023-01-07T00:27:21.507Z,3.10
2023-01-07T00:28:21.503Z,2.40
2023-01-07T00:29:21.500Z,3.00
2023-01-07T00:30:21.610Z,4.50
2023-01-07T00:31:21.512Z,2.90
2023-01-07T00:32:21.453Z,2.30
2023-01-07T00:33:21.444Z,2.60
2023-01-07T00:34:21.438Z,3.20
2023-01-07T00:35:21.444Z,3.00
2023-01-07T00:36:21.570Z,4.20
2023-01-07T00:37:21.410Z,3.40
2023-01-07T00:38:21.397Z,3.40
2023-01-07T00:39:21.386Z,4.00
2023-01-07T00:40:28.728Z,3.10
2023-01-07T00:41:21.353Z,3.10
2023-01-07T00:42:21.652Z,4.10
2023-01-07T00:43:21.348Z,4.10
2023-01-07T00:44:21.330Z,4.70
2023-01-07T00:45:21.323Z,3.60
2023-01-07T00:46:21.426Z,2.70
2023-01-07T00:47:21.312Z,3.40
2023-01-07T00:48:21.422Z,4.50
2023-01-07T00:49:21.305Z,3.40
2023-01-07T00:50:21.280Z,4.60
2023-01-07T00:51:21.253Z,2.80
2023-01-07T00:52:21.254Z,4.70
2023-01-07T00:53:21.335Z,3.60
2023-01-07T00:54:21.395Z,2.80
2023-01-07T00:55:21.240Z,3.10
2023-01-07T00:56:21.277Z,4.20
2023-01-07T00:57:21.193Z,3.30
2023-01-07T00:58:21.220Z,3.00
2023-01-07T00:59:21.170Z,3.00
2023-01-07T01:00:21.225Z,3.10
2023-01-07T01:01:21.322Z,2.10
2023-01-07T01:02:21.170Z,4.10
2023-01-07T01:03:21.155Z,4.50
2023-01-07T01:04:21.134Z,3.60
2023-01-07T01:05:21.126Z,3.70
2023-01-07T01:06:21.229Z,3.90
2023-01-07T01:07:21.095Z,4.70
2023-01-07T01:08:21.082Z,2.50
2023-01-07T01:09:21.067Z,2.90
2023-01-07T01:10:21.082Z,3.60
2023-01-07T01:11:21.044Z,4.60
2023-01-07T01:12:21.193Z,4.10
2023-01-07T01:13:21.027Z,3.70
2023-01-07T01:14:21.018Z,2.40
2023-01-07T01:15:21.029Z,3.70
2023-01-07T01:16:21.100Z,2.80
2023-01-07T01:17:20.986Z,3.60
2023-01-07T01:18:21.171Z,3.40
2023-01-07T01:19:20.981Z,2.50
2023-01-07T01:20:20.987Z,3.00
2023-01-07T01:21:20.963Z,3.30
2023-01-07T01:22:20.934Z,3.50
2023-01-07T01:23:20.914Z,4.10
2023-01-07T01:24:21.087Z,3.30
2023-01-07T01:25:20.896Z,3.00
2023-01-07T01:26:20.889Z,3.40
2023-01-07T01:27:20.890Z,2.70
2023-01-07T01:28:20.875Z,2.30
2023-01-07T01:29:20.852Z,3.50
2023-01-07T01:30:20.993Z,2.40
2023-01-07T01:31:20.846Z,3.00
2023-01-07T01:32:20.828Z,3.00
2023-01-07T01:33:20.838Z,4.00
2023-01-07T01:34:20.814Z,2.80
2023-01-07T01:35:20.787Z,2.10
2023-01-07T01:36:20.939Z,3.10
2023-01-07T01:37:20.787Z,2.10
2023-01-07T01:38:20.766Z,3.10
2023-01-07T01:39:20.762Z,2.70
2023-01-07T01:40:28.232Z,2.70
2023-01-07T01:41:20.733Z,2.80
2023-01-07T01:42:21.014Z,3.20
2023-01-07T01:43:20.704Z,2.70
2023-01-07T01:44:20.698Z,3.00
2023-01-07T01:45:20.697Z,2.60
2023-01-07T01:46:20.754Z,3.20
2023-01-07T01:47:20.702Z,3.70
2023-01-07T01:48:20.804Z,2.80
2023-01-07T01:49:20.638Z,2.30
2023-01-07T01:50:20.637Z,3.40
2023-01-07T01:51:20.628Z,3.60
2023-01-07T01:52:20.607Z,2.60
2023-01-07T01:53:20.598Z,2.90
2023-01-07T01:54:20.751Z,3.40
2023-01-07T01:55:20.597Z,2.80
2023-01-07T01:56:20.576Z,3.20
2023-01-07T01:57:20.565Z,3.20
2023-01-07T01:58:20.552Z,3.20
2023-01-07T01:59:20.561Z,2.80
2023-01-07T02:00:20.683Z,3.30
2023-01-07T02:01:20.617Z,2.60
2023-01-07T02:02:20.549Z,3.10
2023-01-07T02:03:20.491Z,4.30
2023-01-07T02:04:20.524Z,2.60
2023-01-07T02:05:20.481Z,3.40
2023-01-07T02:06:20.619Z,4.20
2023-01-07T02:07:20.450Z,2.80
2023-01-07T02:08:20.441Z,3.60
2023-01-07T02:09:20.432Z,3.50
2023-01-07T02:10:20.456Z,2.20
2023-01-07T02:11:20.413Z,3.20
2023-01-07T02:12:20.529Z,2.60
2023-01-07T02:13:20.384Z,1.90
2023-01-07T02:14:20.388Z,2.20
2023-01-07T02:15:20.441Z,2.20
2023-01-07T02:16:20.392Z,3.00
2023-01-07T02:17:20.349Z,2.80
2023-01-07T02:18:20.377Z,3.90
2023-01-07T02:19:20.329Z,3.30
2023-01-07T02:20:20.352Z,2.30
2023-01-07T02:21:20.309Z,2.30
2023-01-07T02:22:20.290Z,2.60
2023-01-07T02:23:20.289Z,1.80
2023-01-07T02:24:20.404Z,2.70
2023-01-07T02:25:20.273Z,2.50
2023-01-07T02:26:20.253Z,2.30
2023-01-07T02:27:21.130Z,3.60
2023-01-07T02:28:20.231Z,3.60
2023-01-07T02:29:20.222Z,2.30
2023-01-07T02:30:20.348Z,1.90
2023-01-07T02:31:20.234Z,2.20
2023-01-07T02:32:20.191Z,3.10
2023-01-07T02:33:20.214Z,2.70
2023-01-07T02:34:20.168Z,1.90
2023-01-07T06:50:25.537Z,2.80
2023-01-07T06:51:26.165Z,1.80
2023-01-07T06:52:26.148Z,2.80
2023-01-07T06:53:26.138Z,2.30
2023-01-07T06:54:26.168Z,2.60
2023-01-07T06:55:26.344Z,1.70
2023-01-07T06:56:26.112Z,2.50
2023-01-07T06:57:26.105Z,2.70
2023-01-07T06:58:26.134Z,2.10
2023-01-07T06:59:26.088Z,1.60
2023-01-07T07:00:26.078Z,1.90
2023-01-07T07:01:26.363Z,1.60
2023-01-07T07:02:26.250Z,3.30
2023-01-07T07:03:26.057Z,3.40
2023-01-07T07:04:26.031Z,1.10
2023-01-07T07:05:26.025Z,1.90
2023-01-07T07:06:26.070Z,1.90
2023-01-07T07:07:26.232Z,2.00
2023-01-07T07:08:26.027Z,2.50
2023-01-07T07:09:25.986Z,2.30
2023-01-07T07:10:25.990Z,2.50
2023-01-07T07:11:25.959Z,2.40
2023-01-07T07:12:25.966Z,1.60
2023-01-07T07:13:26.059Z,2.30
2023-01-07T07:14:26.064Z,2.10
2023-01-07T07:15:25.969Z,2.50
2023-01-07T07:16:26.060Z,2.10
2023-01-07T07:17:25.947Z,1.70
2023-01-07T07:18:25.939Z,2.20
2023-01-07T07:19:26.121Z,2.10
2023-01-07T07:20:25.946Z,1.70
2023-01-07T07:21:25.936Z,2.70
2023-01-07T07:22:25.913Z,1.70
2023-01-07T07:23:25.929Z,2.40
2023-01-07T07:24:25.833Z,1.70
2023-01-07T07:25:25.976Z,1.60
2023-01-07T07:26:25.804Z,1.70
2023-01-07T07:27:26.049Z,1.40
2023-01-07T07:28:25.827Z,3.70
2023-01-07T07:29:25.783Z,1.60
2023-01-07T07:30:45.320Z,2.40
2023-01-07T07:31:26.000Z,2.70
2023-01-07T07:32:25.746Z,1.40
2023-01-07T07:33:25.744Z,1.90
2023-01-07T07:34:25.714Z,1.50
2023-01-07T07:35:25.709Z,2.80
2023-01-07T07:36:25.695Z,2.00
2023-01-07T07:37:25.820Z,1.90
2023-01-07T07:38:25.700Z,2.00
2023-01-07T07:39:25.683Z,3.10
2023-01-07T07:40:25.660Z,2.30
2023-01-07T07:41:25.656Z,2.30
2023-01-07T07:42:25.627Z,1.80
2023-01-07T07:43:25.849Z,1.50
2023-01-07T07:44:25.729Z,1.50
2023-01-07T07:45:25.609Z,2.60
2023-01-07T07:46:25.620Z,2.30
2023-01-07T07:47:25.590Z,4.60
2023-01-07T07:48:25.570Z,7.20
2023-01-07T07:49:25.727Z,3.80
2023-01-07T07:50:25.580Z,3.30
2023-01-07T07:51:25.551Z,2.40
2023-01-07T07:52:25.535Z,1.80
2023-01-07T07:53:25.542Z,2.90
2023-01-07T07:54:25.498Z,1.80
2023-01-07T07:55:26.508Z,1.30
2023-01-07T07:56:25.493Z,2.60
2023-01-07T07:57:25.489Z,1.40
2023-01-07T07:58:25.458Z,3.10
2023-01-07T07:59:25.453Z,2.30
2023-01-07T08:00:25.503Z,2.40
2023-01-07T08:01:25.649Z,2.10
2023-01-07T08:02:25.461Z,2.80
2023-01-07T08:03:25.444Z,2.50
2023-01-07T08:04:25.408Z,2.10
2023-01-07T08:05:25.428Z,2.70
2023-01-07T08:06:25.391Z,1.60
2023-01-07T08:07:32.564Z,1.60
2023-01-07T08:08:25.372Z,1.80
2023-01-07T08:09:25.358Z,3.30
2023-01-07T08:10:25.334Z,2.40
2023-01-07T08:11:25.332Z,1.50
2023-01-07T08:12:25.317Z,2.90
2023-01-07T08:13:25.463Z,3.10
2023-01-07T08:14:25.295Z,1.70
2023-01-07T08:15:25.308Z,2.10
2023-01-07T08:16:25.392Z,1.80
2023-01-07T08:17:25.274Z,2.10
2023-01-07T08:18:25.299Z,1.70
2023-01-07T08:19:25.404Z,4.50
2023-01-07T08:20:25.240Z,1.70
2023-01-07T08:21:25.230Z,1.30
2023-01-07T08:22:25.227Z,1.70
2023-01-07T08:23:25.212Z,2.10
2023-01-07T08:24:25.193Z,1.80
2023-01-07T08:25:25.335Z,1.70
2023-01-07T08:26:25.176Z,2.00
2023-01-07T08:27:25.168Z,2.70
2023-01-07T08:28:25.169Z,1.60
2023-01-07T08:29:25.148Z,3.90
2023-01-07T08:30:25.132Z,2.40
2023-01-07T08:31:25.309Z,2.20
2023-01-07T08:32:25.112Z,1.90
2023-01-07T08:33:25.109Z,1.80
2023-01-07T08:34:25.184Z,2.20
2023-01-07T08:35:25.102Z,1.80
2023-01-07T08:36:25.070Z,3.10
2023-01-07T08:37:25.204Z,1.80
2023-01-07T08:38:25.045Z,2.40
2023-01-07T08:39:25.046Z,2.40
2023-01-07T08:40:25.030Z,1.40
2023-01-07T08:41:25.028Z,2.40
2023-01-07T08:42:25.011Z,2.40
2023-01-07T08:43:25.129Z,2.80
2023-01-07T08:44:24.989Z,2.40
2023-01-07T08:45:24.989Z,2.90
2023-01-07T08:46:25.019Z,3.20
2023-01-07T08:47:24.963Z,2.30
2023-01-07T08:48:24.944Z,1.90
2023-01-07T08:49:25.087Z,1.90
2023-01-07T08:50:24.954Z,2.00
2023-01-07T08:51:24.917Z,2.10
2023-01-07T08:52:24.906Z,2.10
2023-01-07T08:53:24.896Z,2.70
2023-01-07T08:54:24.888Z,1.90
2023-01-07T08:55:25.040Z,3.00
2023-01-07T08:56:24.870Z,2.20
2023-01-07T08:57:24.905Z,2.60
2023-01-07T08:58:24.852Z,1.80
2023-01-07T08:59:24.842Z,2.10
2023-01-07T09:00:24.838Z,2.40
2023-01-07T09:01:25.220Z,2.40
2023-01-07T09:02:24.853Z,2.90
2023-01-07T09:03:24.805Z,1.60
2023-01-07T09:04:24.779Z,2.00
2023-01-07T09:05:24.776Z,2.60
2023-01-07T09:06:24.765Z,2.80
2023-01-07T09:07:24.891Z,2.60
2023-01-07T09:08:24.752Z,1.70
2023-01-07T09:09:24.738Z,1.30
2023-01-07T09:10:24.768Z,2.20
2023-01-07T09:11:24.717Z,2.10
2023-01-07T09:12:24.707Z,1.40
2023-01-07T09:13:24.849Z,1.40
2023-01-07T09:14:24.686Z,1.70
2023-01-07T09:15:24.675Z,1.50
2023-01-07T09:16:24.712Z,1.90
2023-01-07T09:17:24.660Z,1.40
2023-01-07T09:18:24.659Z,2.10
2023-01-07T09:19:24.776Z,1.90
2023-01-07T09:20:24.633Z,2.20
2023-01-07T09:21:24.609Z,1.20
2023-01-07T09:22:24.598Z,2.70
2023-01-07T09:23:24.596Z,1.60
2023-01-07T09:24:24.594Z,2.60
2023-01-07T09:25:24.759Z,2.20
2023-01-07T09:26:24.557Z,2.50
2023-01-07T09:27:24.545Z,2.40
2023-01-07T09:28:24.537Z,1.70
2023-01-07T09:29:24.540Z,1.30
2023-01-07T09:30:24.520Z,2.00
2023-01-07T09:31:24.717Z,1.80
2023-01-07T09:32:24.504Z,1.70
2023-01-07T09:33:24.553Z,1.80
2023-01-07T09:34:24.472Z,1.90
2023-01-07T09:35:24.470Z,2.30
2023-01-07T09:36:24.447Z,1.20
2023-01-07T09:37:24.580Z,1.80
2023-01-07T09:38:24.495Z,3.10
2023-01-07T09:39:24.426Z,1.40
2023-01-07T09:40:24.412Z,3.50
2023-01-07T09:41:24.403Z,2.60
2023-01-07T09:42:24.396Z,1.50
2023-01-07T09:43:24.535Z,2.50
2023-01-07T09:44:24.440Z,1.70
2023-01-07T09:45:24.406Z,1.70
2023-01-07T09:46:24.351Z,3.10
2023-01-07T09:47:24.348Z,2.10
2023-01-07T09:48:24.345Z,3.30
2023-01-07T09:49:24.492Z,1.80
2023-01-07T09:50:25.263Z,2.30
2023-01-07T09:51:24.840Z,2.10
2023-01-07T09:52:24.288Z,1.90
2023-01-07T09:53:24.281Z,1.60
2023-01-07T09:54:24.320Z,2.00
2023-01-07T09:55:24.309Z,1.80
2023-01-07T09:56:24.282Z,5.20
2023-01-07T09:57:24.243Z,4.40
2023-01-07T09:58:24.228Z,1.80
2023-01-07T09:59:24.254Z,4.90
2023-01-07T10:00:24.242Z,2.50
2023-01-07T10:01:24.463Z,2.90
2023-01-07T10:02:24.213Z,1.40
2023-01-07T10:03:24.181Z,1.80
2023-01-07T10:04:24.170Z,1.50
2023-01-07T10:05:24.160Z,2.00
2023-01-07T10:06:38.486Z,1.70
2023-01-07T10:07:24.452Z,1.60
2023-01-07T10:08:29.679Z,1.90
2023-01-07T10:09:24.133Z,2.20
2023-01-07T10:10:24.105Z,3.20
2023-01-07T10:11:24.104Z,1.20
2023-01-07T10:12:24.084Z,2.80
2023-01-07T10:13:24.228Z,1.90
2023-01-07T10:14:24.084Z,2.10
2023-01-07T10:15:24.067Z,2.20
2023-01-07T10:16:24.104Z,1.80
2023-01-07T10:17:24.043Z,1.50
2023-01-07T10:18:24.021Z,2.40
2023-01-07T10:19:24.774Z,1.60
2023-01-07T10:20:23.994Z,2.30
2023-01-07T10:21:24.001Z,3.60
2023-01-07T10:22:24.005Z,2.30
2023-01-07T10:23:24.005Z,2.90
2023-01-07T10:24:24.006Z,2.30
2023-01-07T10:25:24.003Z,1.80
2023-01-07T10:26:23.980Z,2.90
2023-01-07T10:27:23.937Z,1.80
2023-01-07T10:28:23.914Z,2.70
2023-01-07T10:29:23.937Z,1.90
2023-01-07T10:30:23.916Z,3.40
2023-01-07T10:31:24.133Z,1.60
2023-01-07T10:32:23.877Z,3.50
2023-01-07T10:33:23.866Z,2.00
2023-01-07T10:34:23.855Z,2.30
2023-01-07T10:35:23.858Z,2.10
2023-01-07T10:36:23.845Z,1.40
2023-01-07T10:37:23.997Z,2.90
2023-01-07T10:38:23.816Z,1.10
2023-01-07T10:39:23.809Z,3.20
2023-01-07T10:40:23.818Z,2.20
2023-01-07T10:41:23.795Z,4.70
2023-01-07T10:42:23.776Z,2.00
2023-01-07T10:43:23.912Z,2.90
2023-01-07T10:44:23.742Z,2.10
2023-01-07T10:45:23.751Z,7.60
2023-01-07T10:46:23.740Z,8.70
2023-01-07T10:47:23.741Z,4.90
2023-01-07T10:48:23.724Z,3.70
2023-01-07T10:49:23.885Z,3.80
2023-01-07T10:50:23.703Z,3.40
2023-01-07T10:51:23.702Z,3.10
2023-01-07T10:52:23.666Z,4.80
2023-01-07T10:53:23.674Z,4.70
2023-01-07T10:54:23.659Z,4.20
2023-01-07T10:55:23.694Z,4.50
2023-01-07T10:56:23.625Z,3.80
2023-01-07T10:57:23.622Z,3.70
2023-01-07T10:58:23.611Z,3.80
2023-01-07T10:59:23.717Z,6.80
2023-01-07T11:00:23.620Z,3.10
2023-01-07T11:01:23.890Z,3.20
2023-01-07T11:02:23.835Z,3.20
2023-01-07T11:03:23.551Z,6.60
2023-01-07T11:04:23.560Z,4.20
2023-01-07T11:05:23.534Z,4.10
2023-01-07T11:06:23.537Z,4.20
2023-01-07T11:07:23.660Z,5.80
2023-01-07T11:08:23.558Z,4.00
2023-01-07T11:09:23.519Z,2.40
2023-01-07T11:10:24.351Z,4.70
2023-01-07T11:11:23.484Z,8.00
2023-01-07T11:12:23.467Z,4.60
2023-01-07T11:13:23.769Z,5.20
2023-01-07T11:14:23.439Z,3.60
2023-01-07T11:15:23.434Z,3.60
2023-01-07T11:16:23.508Z,5.70
2023-01-07T11:17:23.452Z,4.60
2023-01-07T11:18:23.411Z,4.80
2023-01-07T11:19:24.287Z,7.10
2023-01-07T11:20:23.423Z,3.30
2023-01-07T11:21:43.501Z,7.60
2023-01-07T11:22:23.370Z,4.50
2023-01-07T11:23:23.386Z,4.60
2023-01-07T11:24:23.379Z,6.00
2023-01-07T11:25:23.475Z,4.70
2023-01-07T11:26:23.326Z,4.70
2023-01-07T11:27:23.313Z,3.70
2023-01-07T11:28:23.300Z,3.90
2023-01-07T11:29:23.298Z,4.90
2023-01-07T11:30:23.295Z,5.60
2023-01-07T11:31:23.516Z,5.50
2023-01-07T11:32:23.395Z,4.10
2023-01-07T11:33:23.255Z,4.30
2023-01-07T11:34:23.275Z,4.50
2023-01-07T11:35:23.317Z,6.70
2023-01-07T11:36:23.243Z,6.00
2023-01-07T11:37:23.362Z,6.00
2023-01-07T11:38:23.205Z,5.90
2023-01-07T11:39:23.188Z,8.90
2023-01-07T11:40:23.213Z,7.00
2023-01-07T11:41:23.177Z,8.20
2023-01-07T11:42:23.228Z,6.00
2023-01-07T11:43:23.318Z,5.30
2023-01-07T11:44:23.186Z,5.70
2023-01-07T11:45:23.136Z,4.10
2023-01-07T11:46:25.890Z,5.20
2023-01-07T11:47:23.117Z,6.00
2023-01-07T11:48:23.103Z,3.70
2023-01-07T11:49:23.291Z,5.20
2023-01-07T11:50:23.132Z,4.70
2023-01-07T11:51:23.073Z,5.80
2023-01-07T11:52:23.062Z,6.00
2023-01-07T11:53:23.046Z,7.20
2023-01-07T11:54:23.059Z,3.30
2023-01-07T11:55:23.171Z,6.90
2023-01-07T11:56:23.018Z,6.80
2023-01-07T11:57:23.008Z,7.20
2023-01-07T11:58:29.634Z,8.90
2023-01-07T11:59:22.993Z,3.60
2023-01-07T12:00:23.022Z,4.20
2023-01-07T12:01:23.270Z,6.10
2023-01-07T12:02:23.082Z,5.70
2023-01-07T12:03:22.988Z,6.70
2023-01-07T12:04:23.000Z,7.20
2023-01-07T12:05:22.975Z,6.60
2023-01-07T12:06:22.924Z,13.70
2023-01-07T12:07:23.152Z,5.40
2023-01-07T12:08:22.918Z,7.50
2023-01-07T12:09:22.903Z,8.60
2023-01-07T12:10:22.880Z,10.70
2023-01-07T12:11:22.861Z,5.90
2023-01-07T12:12:22.846Z,6.60
2023-01-07T12:13:23.019Z,5.60
2023-01-07T12:14:22.838Z,5.60
2023-01-07T12:15:22.821Z,4.30
2023-01-07T12:16:22.924Z,6.40
2023-01-07T12:17:22.804Z,7.80
2023-01-07T12:18:22.809Z,7.50
2023-01-07T12:19:23.086Z,5.80
2023-01-07T12:20:22.767Z,4.60
2023-01-07T12:21:22.766Z,6.60
2023-01-07T12:22:22.754Z,5.50
2023-01-07T12:23:22.767Z,5.40
2023-01-07T12:24:22.744Z,5.40
2023-01-07T12:25:22.855Z,4.80
2023-01-07T12:26:22.707Z,4.90
2023-01-07T12:27:22.719Z,6.70
2023-01-07T12:28:22.712Z,5.90
2023-01-07T12:29:22.680Z,6.80
2023-01-07T12:30:22.698Z,8.20
2023-01-07T12:31:22.945Z,12.30
2023-01-07T12:32:22.643Z,6.10
2023-01-07T12:33:22.652Z,6.10
2023-01-07T12:34:22.623Z,6.30
2023-01-07T12:35:22.631Z,4.90
2023-01-07T12:36:22.596Z,5.80
2023-01-07T12:37:22.784Z,6.90
2023-01-07T12:38:22.583Z,5.10
2023-01-07T12:39:22.572Z,12.30
2023-01-07T12:40:22.606Z,27.80
2023-01-07T12:41:22.562Z,20.10
2023-01-07T12:43:22.684Z,19.30
2023-01-07T12:44:22.528Z,18.50
2023-01-07T12:45:22.509Z,14.40
2023-01-07T12:46:22.518Z,20.20
2023-01-07T12:47:32.640Z,15.20
2023-01-07T12:48:22.493Z,15.30
2023-01-07T12:49:22.615Z,15.80
2023-01-07T12:50:22.469Z,28.00
2023-01-07T12:51:22.461Z,52.40
2023-01-07T12:52:22.449Z,90.70
2023-01-07T12:53:22.428Z,84.10
2023-01-07T12:54:22.426Z,61.80
2023-01-07T12:55:22.586Z,51.60
2023-01-07T12:56:23.718Z,50.60
2023-01-07T12:57:22.383Z,41.20
2023-01-07T12:58:22.368Z,38.00
2023-01-07T12:59:46.543Z,40.70
2023-01-07T13:00:22.391Z,35.30
2023-01-07T13:01:22.679Z,37.60
2023-01-07T13:02:22.387Z,32.40
2023-01-07T13:03:22.312Z,31.00
2023-01-07T13:04:22.402Z,30.30
2023-01-07T13:05:22.290Z,33.10
2023-01-07T13:06:22.291Z,30.10
2023-01-07T13:07:22.449Z,59.30
2023-01-07T13:08:22.277Z,74.90
2023-01-07T13:09:22.256Z,48.50
2023-01-07T13:10:22.246Z,69.40
2023-01-07T13:11:22.236Z,52.00
2023-01-07T13:12:42.359Z,48.60
2023-01-07T13:13:22.368Z,38.70
2023-01-07T13:14:22.226Z,42.60
2023-01-07T13:15:22.203Z,44.40
2023-01-07T13:16:22.295Z,40.50
2023-01-07T13:17:22.178Z,33.30
2023-01-07T13:18:22.203Z,30.00
2023-01-07T13:19:22.280Z,30.30
2023-01-07T13:20:22.179Z,34.50
2023-01-07T13:21:22.150Z,31.60
2023-01-07T13:22:22.192Z,38.10
2023-01-07T13:23:22.122Z,32.20
2023-01-07T13:24:22.119Z,30.60
2023-01-07T13:25:22.413Z,30.70
2023-01-07T13:26:22.135Z,28.90
2023-01-07T13:27:22.093Z,38.90
2023-01-07T13:28:22.105Z,37.10
2023-01-07T13:29:22.074Z,37.70
2023-01-07T13:30:22.052Z,53.50
2023-01-07T13:31:22.313Z,49.00
2023-01-07T13:32:22.065Z,39.00
2023-01-07T13:33:22.046Z,50.40
2023-01-07T13:34:22.009Z,39.40
2023-01-07T13:35:22.053Z,49.20
2023-01-07T13:36:22.072Z,46.30
2023-01-07T13:37:22.118Z,52.40
2023-01-07T13:38:22.071Z,43.40
2023-01-07T13:39:21.957Z,48.90
2023-01-07T13:40:21.981Z,35.10
2023-01-07T13:41:21.936Z,46.20
2023-01-07T13:42:21.940Z,37.30
2023-01-07T13:43:22.117Z,38.20
2023-01-07T13:44:21.953Z,39.00
2023-01-07T13:45:21.955Z,45.40
2023-01-07T13:46:22.031Z,38.90
2023-01-07T13:47:21.858Z,34.40
2023-01-07T13:48:21.932Z,35.30
2023-01-07T13:49:22.016Z,38.60
2023-01-07T13:50:21.894Z,36.50
2023-01-07T13:51:21.825Z,39.50
2023-01-07T13:52:21.816Z,35.90
2023-01-07T13:53:21.808Z,36.80
2023-01-07T13:54:21.815Z,34.80
2023-01-07T13:55:21.987Z,36.40
2023-01-07T13:56:21.815Z,37.50
2023-01-07T13:57:21.832Z,35.80
2023-01-07T13:58:21.816Z,40.60
2023-01-07T13:59:21.797Z,30.50
2023-01-07T14:00:22.326Z,33.90
2023-01-07T14:01:21.995Z,37.10
2023-01-07T14:02:21.948Z,31.90
2023-01-07T14:03:21.773Z,21.10
2023-01-07T14:04:21.722Z,26.00
2023-01-07T14:05:21.685Z,30.80
2023-01-07T14:06:21.683Z,35.70
2023-01-07T14:07:21.896Z,29.00
2023-01-07T14:08:21.669Z,27.40
2023-01-07T14:09:21.701Z,34.00
2023-01-07T14:10:21.645Z,29.10
2023-01-07T14:11:21.622Z,28.50
2023-01-07T14:12:21.657Z,29.40
2023-01-07T14:13:21.795Z,27.80
2023-01-07T14:14:21.594Z,26.30
2023-01-07T14:15:21.581Z,27.90
2023-01-07T14:16:21.668Z,25.90
2023-01-07T14:17:21.565Z,32.40
2023-01-07T14:18:21.549Z,25.50
2023-01-07T14:19:21.575Z,26.90
2023-01-07T14:20:21.567Z,26.50
2023-01-07T14:21:21.518Z,27.00
2023-01-07T14:22:21.567Z,31.80
2023-01-07T14:23:21.491Z,27.30
2023-01-07T14:24:21.497Z,24.80
2023-01-07T14:25:21.663Z,23.30
2023-01-07T14:26:21.489Z,28.90
2023-01-07T14:27:21.457Z,29.90
2023-01-07T14:28:21.447Z,26.90
2023-01-07T14:29:21.490Z,23.10
2023-01-07T14:30:21.435Z,25.10
2023-01-07T14:31:21.700Z,24.80
2023-01-07T14:32:21.425Z,25.00
2023-01-07T14:33:21.421Z,25.20
2023-01-07T14:34:21.383Z,21.40
2023-01-07T14:35:21.383Z,23.90
2023-01-07T14:36:21.371Z,23.60
2023-01-07T14:37:21.492Z,23.10
2023-01-07T14:38:21.373Z,21.90
2023-01-07T14:39:21.325Z,24.00
2023-01-07T14:40:21.327Z,21.70
2023-01-07T14:41:21.347Z,19.60
2023-01-07T14:42:21.336Z,18.80
2023-01-07T14:43:21.445Z,20.40
2023-01-07T14:44:21.291Z,20.90
2023-01-07T14:45:21.265Z,22.10
2023-01-07T14:46:21.293Z,20.80
2023-01-07T14:47:21.248Z,21.10
2023-01-07T14:48:21.254Z,23.50
2023-01-07T14:49:21.390Z,21.40
2023-01-07T14:50:21.233Z,20.60
2023-01-07T14:51:21.207Z,17.30
2023-01-07T14:52:21.202Z,18.50
2023-01-07T14:53:21.216Z,16.80
2023-01-07T14:54:21.188Z,16.70
2023-01-07T14:55:21.337Z,15.70
2023-01-07T14:56:21.197Z,18.90
2023-01-07T14:57:21.152Z,19.00
2023-01-07T14:58:21.145Z,16.90
2023-01-07T14:59:21.200Z,15.90
2023-01-07T15:00:21.229Z,16.90
2023-01-07T15:01:21.469Z,19.70
2023-01-07T15:02:21.147Z,15.90
2023-01-07T15:03:22.467Z,7.90
2023-01-07T15:04:21.083Z,10.90
2023-01-07T15:05:21.112Z,8.90
2023-01-07T15:06:21.072Z,11.70
2023-01-07T15:07:21.235Z,17.20
2023-01-07T15:08:21.041Z,18.40
2023-01-07T15:09:21.027Z,16.50
2023-01-07T15:10:21.019Z,16.30
2023-01-07T15:11:21.010Z,18.60
2023-01-07T15:12:21.042Z,13.00
2023-01-07T15:13:21.132Z,16.20
2023-01-07T15:14:20.982Z,16.20
2023-01-07T15:15:20.968Z,13.80
2023-01-07T15:16:21.143Z,14.50
2023-01-07T15:17:21.029Z,13.40
2023-01-07T15:18:20.951Z,13.30
2023-01-07T15:19:21.087Z,14.50
2023-01-07T15:20:20.926Z,13.70
2023-01-07T15:21:20.915Z,14.40
2023-01-07T15:22:20.903Z,13.90
2023-01-07T15:23:20.887Z,14.00
2023-01-07T15:24:20.873Z,14.50
2023-01-07T15:25:21.172Z,17.20
2023-01-07T15:26:20.892Z,16.80
2023-01-07T15:27:20.878Z,12.40
2023-01-07T15:28:20.839Z,13.30
2023-01-07T15:29:20.821Z,16.00
2023-01-07T15:30:20.799Z,14.30
2023-01-07T15:31:20.875Z,13.30
2023-01-07T15:32:21.122Z,17.10
2023-01-07T15:33:20.785Z,16.10
2023-01-07T15:34:20.773Z,11.10
2023-01-07T15:35:20.819Z,13.00
2023-01-07T15:36:20.754Z,14.00
2023-01-07T15:37:21.089Z,16.00
2023-01-07T15:38:20.730Z,13.80
2023-01-07T15:39:20.744Z,12.70
2023-01-07T15:40:20.708Z,13.00
2023-01-07T15:41:20.699Z,12.20
2023-01-07T15:42:20.691Z,13.00
2023-01-07T15:43:20.834Z,15.20
2023-01-07T15:44:20.709Z,12.30
2023-01-07T15:45:20.732Z,12.50
2023-01-07T15:46:20.693Z,13.60
2023-01-07T15:47:20.653Z,11.00
2023-01-07T15:48:20.653Z,13.50
2023-01-07T15:49:20.778Z,13.20
2023-01-07T15:50:20.607Z,12.10
2023-01-07T15:51:20.605Z,13.30
2023-01-07T15:52:20.586Z,11.90
2023-01-07T15:53:20.588Z,11.40
2023-01-07T15:54:20.568Z,12.20
2023-01-07T15:55:20.727Z,11.30
2023-01-07T15:56:20.540Z,14.00
2023-01-07T15:57:20.546Z,10.10
2023-01-07T15:58:20.559Z,9.40
2023-01-07T15:59:20.515Z,11.30
2023-01-07T16:00:20.500Z,12.70
2023-01-07T16:01:20.754Z,12.60
2023-01-07T16:02:20.569Z,10.30
2023-01-07T16:03:20.491Z,12.00
2023-01-07T16:04:20.529Z,12.20
2023-01-07T16:05:20.465Z,15.20
2023-01-07T16:06:20.435Z,11.60
2023-01-07T16:07:20.565Z,10.40
2023-01-07T16:08:20.423Z,12.40
2023-01-07T16:09:20.402Z,13.40
2023-01-07T16:10:20.407Z,11.50
2023-01-07T16:11:20.400Z,10.60
2023-01-07T16:12:20.374Z,9.70
2023-01-07T16:13:20.501Z,10.10
2023-01-07T16:14:20.377Z,9.10
2023-01-07T16:15:20.358Z,10.40
2023-01-07T16:16:20.376Z,11.90
2023-01-07T16:17:20.350Z,10.80
2023-01-07T16:18:20.313Z,8.90
2023-01-07T16:19:20.457Z,11.10
2023-01-07T16:20:20.307Z,9.80
2023-01-07T16:21:20.282Z,8.60
2023-01-07T16:22:20.272Z,11.50
2023-01-07T16:23:20.278Z,10.20
2023-01-07T16:24:20.246Z,10.40
2023-01-07T16:25:20.381Z,9.20
2023-01-07T16:26:20.255Z,9.40
2023-01-07T16:27:20.235Z,10.40
2023-01-07T16:28:20.212Z,9.40
2023-01-07T16:29:20.213Z,10.70
2023-01-07T16:30:20.187Z,9.30
2023-01-07T16:31:20.426Z,8.60
2023-01-07T16:32:20.173Z,11.30
2023-01-07T16:33:20.165Z,7.80
2023-01-07T16:34:20.151Z,8.30
2023-01-07T16:35:20.150Z,10.90
2023-01-07T16:36:20.124Z,12.50
2023-01-07T16:37:20.280Z,9.50
2023-01-07T16:38:20.119Z,8.70
2023-01-07T16:39:20.101Z,7.70
2023-01-07T16:40:20.085Z,10.30
2023-01-07T16:41:20.106Z,10.90
2023-01-07T16:42:20.066Z,11.70
2023-01-07T16:43:20.371Z,11.00
2023-01-07T16:44:20.061Z,9.30
2023-01-07T16:45:20.048Z,7.40
2023-01-07T16:46:20.107Z,9.80
2023-01-07T16:47:20.033Z,8.40
2023-01-07T16:48:20.338Z,8.80
2023-01-07T16:49:20.485Z,8.40
2023-01-07T16:50:20.049Z,7.60
2023-01-07T16:51:20.003Z,7.80
2023-01-07T16:52:19.978Z,7.20
2023-01-07T16:53:20.001Z,10.10
2023-01-07T16:54:19.990Z,7.10
2023-01-07T16:55:20.134Z,10.70
2023-01-07T16:56:19.965Z,7.60
2023-01-07T16:57:19.925Z,6.90
2023-01-07T16:58:19.945Z,7.50
2023-01-07T16:59:19.947Z,7.80
2023-01-07T17:00:19.912Z,12.10
2023-01-07T17:01:20.991Z,7.20
2023-01-07T17:02:19.876Z,7.40
2023-01-07T17:03:19.916Z,9.00
2023-01-07T17:04:19.876Z,6.80
2023-01-07T17:05:19.931Z,9.90
2023-01-07T17:06:19.819Z,7.00
2023-01-07T17:07:20.031Z,7.10
2023-01-07T17:08:19.797Z,7.70
2023-01-07T17:09:19.851Z,7.00
2023-01-07T17:10:19.826Z,6.40
2023-01-07T17:11:19.850Z,7.50
2023-01-07T17:12:19.812Z,8.50
2023-01-07T17:13:19.958Z,9.10
2023-01-07T17:14:19.831Z,7.20
2023-01-07T17:15:19.783Z,7.70
2023-01-07T17:16:19.790Z,5.70
2023-01-07T17:17:19.786Z,8.10
2023-01-07T17:18:19.795Z,6.50
2023-01-07T17:19:20.037Z,8.70
2023-01-07T17:20:19.706Z,6.50
2023-01-07T17:21:19.665Z,7.10
2023-01-07T17:22:19.829Z,6.80
2023-01-07T17:23:19.684Z,6.00
2023-01-07T17:24:19.915Z,6.30
2023-01-07T17:25:19.658Z,6.20
2023-01-07T17:26:19.609Z,7.60